Time;durP1;ratioP1;P1;durP2;ratioP2;P2;SDS_P1;SDS_P2;PMS_P1;PMS_P2;Temp;Humidity;BMP_temperature;BMP_pressure;BME280_temperature;BME280_humidity;BME280_pressure;Samples;Min_cycle;Max_cycle;Signal;HPM_P1;HPM_P2
2023/09/04 00:00:08;;;;;;;8.02;4.72;;;17.60;99.90;;;;;;5007159;28;20034;-72
2023/09/04 00:02:39;;;;;;;8.88;4.75;;;17.60;99.90;;;;;;5010514;28;20071;-71
2023/09/04 00:05:05;;;;;;;7.82;4.93;;;17.50;99.90;;;;;;5011145;28;20108;-72
2023/09/04 00:07:31;;;;;;;6.75;4.50;;;17.50;99.90;;;;;;5010561;28;20030;-72
2023/09/04 00:09:57;;;;;;;8.95;5.88;;;17.40;99.90;;;;;;5010430;28;20053;-72
2023/09/04 00:12:23;;;;;;;8.32;4.60;;;17.30;99.90;;;;;;5010073;28;20034;-72
2023/09/04 00:14:48;;;;;;;8.93;5.63;;;17.30;99.90;;;;;;5007572;28;20443;-72
2023/09/04 00:17:14;;;;;;;10.82;5.22;;;17.30;99.90;;;;;;5011351;28;20018;-72
2023/09/04 00:19:40;;;;;;;10.68;4.95;;;17.20;99.90;;;;;;5011302;28;20061;-72
2023/09/04 00:22:06;;;;;;;8.48;4.63;;;17.20;99.90;;;;;;5011120;28;20022;-72
2023/09/04 00:24:32;;;;;;;11.00;4.93;;;17.20;99.90;;;;;;5011257;28;20144;-72
2023/09/04 00:26:57;;;;;;;7.68;4.82;;;17.10;99.90;;;;;;5010765;28;20462;-71
2023/09/04 00:29:23;;;;;;;8.50;5.10;;;17.10;99.90;;;;;;4993113;28;20042;-72
2023/09/04 00:31:49;;;;;;;9.73;4.45;;;17.10;99.90;;;;;;5010933;28;20075;-72
2023/09/04 00:34:15;;;;;;;6.88;4.13;;;17.10;99.90;;;;;;5011099;28;20532;-77
2023/09/04 00:36:40;;;;;;;7.80;4.45;;;17.20;99.90;;;;;;5010929;28;20108;-72
2023/09/04 00:39:06;;;;;;;7.03;4.10;;;17.20;99.90;;;;;;5010293;28;20028;-72
2023/09/04 00:41:32;;;;;;;7.65;4.47;;;17.20;99.90;;;;;;5010098;28;20026;-73
2023/09/04 00:43:58;;;;;;;6.45;4.43;;;17.20;99.90;;;;;;5010671;28;20054;-72
2023/09/04 00:46:25;;;;;;;8.73;4.47;;;17.20;99.90;;;;;;5011005;28;20101;-72
2023/09/04 00:48:51;;;;;;;8.15;4.38;;;17.10;99.90;;;;;;4991541;28;20080;-73
2023/09/04 00:51:18;;;;;;;7.72;4.32;;;17.10;99.90;;;;;;4992409;28;20532;-71
2023/09/04 00:53:44;;;;;;;6.80;4.38;;;17.00;99.90;;;;;;5010744;28;20018;-72
2023/09/04 00:56:13;;;;;;;7.63;3.67;;;17.10;99.90;;;;;;5010691;28;20058;-73
2023/09/04 00:58:39;;;;;;;6.40;3.67;;;17.10;99.90;;;;;;5009740;28;20026;-73
2023/09/04 01:01:05;;;;;;;7.70;4.60;;;17.10;99.90;;;;;;4991723;28;20034;-72
2023/09/04 01:03:31;;;;;;;8.70;4.68;;;17.10;99.90;;;;;;4992700;28;20118;-73
2023/09/04 01:05:59;;;;;;;8.57;5.00;;;17.10;99.90;;;;;;5006712;28;20057;-73
2023/09/04 01:08:25;;;;;;;9.45;5.13;;;17.10;99.90;;;;;;5010453;28;20068;-75
2023/09/04 01:11:19;;;;;;;11.25;5.07;;;17.10;99.90;;;;;;4992828;28;20073;-74
2023/09/04 01:13:53;;;;;;;8.77;4.68;;;17.10;99.90;;;;;;4988985;28;20021;-72
2023/09/04 01:16:19;;;;;;;10.50;4.45;;;17.10;99.90;;;;;;5006884;28;20053;-72
2023/09/04 01:18:45;;;;;;;8.30;3.97;;;17.00;99.90;;;;;;5008933;28;20057;-72
2023/09/04 01:21:11;;;;;;;7.30;4.57;;;17.00;99.90;;;;;;5010594;28;20426;-73
2023/09/04 01:23:36;;;;;;;9.13;4.32;;;17.00;99.90;;;;;;4991743;28;20030;-72
2023/09/04 01:26:26;;;;;;;7.05;3.85;;;17.00;99.90;;;;;;5010512;28;20030;-71
2023/09/04 01:29:33;;;;;;;8.25;4.45;;;16.90;99.90;;;;;;5007454;28;20056;-73
2023/09/04 01:32:28;;;;;;;9.70;4.63;;;16.90;99.90;;;;;;5000487;28;20038;-73
2023/09/04 01:34:56;;;;;;;8.70;4.90;;;16.90;99.90;;;;;;4988200;28;20026;-72
2023/09/04 01:37:23;;;;;;;14.93;4.90;;;16.90;99.90;;;;;;5007118;28;20022;-72
2023/09/04 01:39:50;;;;;;;8.65;4.95;;;16.90;99.90;;;;;;4992476;28;20030;-72
2023/09/04 01:42:16;;;;;;;7.20;5.00;;;16.90;99.90;;;;;;5009949;28;20109;-72
2023/09/04 01:44:43;;;;;;;10.57;4.68;;;16.70;99.90;;;;;;5001683;28;20109;-75
2023/09/04 01:47:09;;;;;;;8.98;4.25;;;16.80;99.90;;;;;;4993466;28;20041;-72
2023/09/04 01:49:35;;;;;;;10.95;4.63;;;16.70;99.90;;;;;;4996533;28;20022;-76
2023/09/04 01:52:00;;;;;;;6.18;3.85;;;16.70;99.90;;;;;;4991231;28;20393;-72
2023/09/04 01:54:27;;;;;;;6.47;4.07;;;16.70;99.90;;;;;;4991513;28;20030;-72
2023/09/04 01:56:53;;;;;;;9.10;4.90;;;16.60;99.90;;;;;;4992455;28;20053;-72
2023/09/04 01:59:19;;;;;;;10.52;4.13;;;16.60;99.90;;;;;;5010368;28;20161;-72
2023/09/04 02:01:45;;;;;;;5.72;3.80;;;16.60;99.90;;;;;;4998101;28;20026;-74
2023/09/04 02:04:11;;;;;;;7.30;4.22;;;16.60;99.90;;;;;;4995071;28;20029;-73
2023/09/04 02:06:36;;;;;;;6.93;3.72;;;16.50;99.90;;;;;;4993360;28;20033;-74
2023/09/04 02:09:04;;;;;;;7.03;4.13;;;16.60;99.90;;;;;;5014513;28;20128;-75
2023/09/04 02:11:30;;;;;;;10.27;4.07;;;16.50;99.90;;;;;;5015161;28;20120;-76
2023/09/04 02:13:56;;;;;;;8.32;4.45;;;16.50;99.90;;;;;;5004636;28;20125;-73
2023/09/04 02:16:24;;;;;;;7.72;4.53;;;16.50;99.90;;;;;;4988156;28;20473;-73
2023/09/04 02:18:51;;;;;;;6.82;4.13;;;16.50;99.90;;;;;;5000257;28;20042;-72
2023/09/04 02:21:17;;;;;;;8.65;4.35;;;16.40;99.90;;;;;;5014965;28;20025;-73
2023/09/04 02:23:43;;;;;;;10.38;4.82;;;16.50;99.90;;;;;;5014845;28;20033;-73
2023/09/04 02:26:08;;;;;;;11.57;4.30;;;16.40;99.90;;;;;;4997023;28;20037;-72
2023/09/04 02:28:34;;;;;;;6.57;4.60;;;16.40;99.90;;;;;;4997191;28;20037;-73
2023/09/04 02:31:11;;;;;;;10.43;4.82;;;16.40;99.90;;;;;;4996810;28;20536;-74
2023/09/04 02:33:37;;;;;;;10.35;4.28;;;16.30;99.90;;;;;;4997372;28;20064;-73
2023/09/04 02:36:03;;;;;;;8.85;4.88;;;16.30;99.90;;;;;;4996697;28;20056;-72
2023/09/04 02:38:29;;;;;;;8.43;4.72;;;16.30;99.90;;;;;;5014625;28;20037;-72
2023/09/04 02:40:55;;;;;;;11.93;4.85;;;16.30;99.90;;;;;;5014249;28;20176;-73
2023/09/04 02:43:20;;;;;;;7.82;4.13;;;16.10;99.90;;;;;;4997160;28;20032;-73
2023/09/04 02:45:47;;;;;;;10.95;5.05;;;16.20;99.90;;;;;;5009458;28;20033;-74
2023/09/04 02:48:13;;;;;;;10.55;4.82;;;16.20;99.90;;;;;;5014237;28;20052;-74
2023/09/04 02:50:40;;;;;;;9.30;5.10;;;16.10;99.90;;;;;;4996325;28;20034;-73
2023/09/04 02:53:06;;;;;;;15.15;5.60;;;16.10;99.90;;;;;;4996692;28;20937;-74
2023/09/04 02:55:32;;;;;;;11.43;6.15;;;16.10;99.90;;;;;;5014596;28;20030;-74
2023/09/04 02:57:58;;;;;;;12.43;5.80;;;16.10;99.90;;;;;;5014189;28;20018;-76
2023/09/04 03:00:24;;;;;;;13.07;5.82;;;16.00;99.90;;;;;;4995986;28;20049;-75
2023/09/04 03:02:50;;;;;;;10.43;5.50;;;16.00;99.90;;;;;;4996564;28;20026;-73
2023/09/04 03:05:16;;;;;;;13.00;5.38;;;15.90;99.90;;;;;;5014189;28;20022;-73
2023/09/04 03:07:42;;;;;;;13.45;5.50;;;15.90;99.90;;;;;;4995798;28;20084;-73
2023/09/04 03:10:08;;;;;;;13.73;5.20;;;15.90;99.90;;;;;;4996484;28;20134;-73
2023/09/04 03:12:34;;;;;;;13.93;6.07;;;15.90;99.90;;;;;;4995553;28;20135;-76
2023/09/04 03:15:04;;;;;;;10.65;5.45;;;16.00;99.90;;;;;;4996399;28;20026;-73
2023/09/04 03:17:31;;;;;;;8.43;4.68;;;15.90;99.90;;;;;;5012072;28;20073;-73
2023/09/04 03:19:58;;;;;;;8.75;5.00;;;15.90;99.90;;;;;;4995478;28;20022;-77
2023/09/04 03:22:25;;;;;;;10.18;4.90;;;15.90;99.90;;;;;;4995820;28;20029;-74
2023/09/04 03:24:52;;;;;;;12.52;5.07;;;15.90;99.90;;;;;;4994616;28;20022;-74
2023/09/04 03:27:20;;;;;;;7.00;4.45;;;15.80;99.90;;;;;;4996206;28;20130;-73
2023/09/04 03:29:46;;;;;;;7.90;4.60;;;15.80;99.90;;;;;;5013306;28;20042;-74
2023/09/04 03:32:12;;;;;;;5.78;3.97;;;15.70;99.90;;;;;;4995984;28;20018;-76
2023/09/04 03:34:39;;;;;;;14.48;4.50;;;15.70;99.90;;;;;;4991188;28;20117;-74
2023/09/04 03:37:05;;;;;;;8.75;5.13;;;15.70;99.90;;;;;;4988852;28;20112;-76
2023/09/04 03:39:38;;;;;;;11.18;4.93;;;15.70;99.90;;;;;;5001430;28;20041;-76
2023/09/04 03:42:05;;;;;;;10.10;4.60;;;15.70;99.90;;;;;;4994119;28;20049;-73
2023/09/04 03:44:30;;;;;;;10.10;5.35;;;15.70;99.90;;;;;;4995149;28;20022;-74
2023/09/04 03:46:56;;;;;;;8.20;4.57;;;15.70;99.90;;;;;;5004384;28;20029;-74
2023/09/04 03:49:23;;;;;;;12.07;5.38;;;15.60;99.90;;;;;;5013300;28;20057;-74
2023/09/04 03:51:49;;;;;;;9.57;6.03;;;15.60;99.90;;;;;;5012918;28;20033;-74
2023/09/04 03:54:15;;;;;;;8.00;4.78;;;15.60;99.90;;;;;;4995528;28;20045;-73
2023/09/04 03:56:41;;;;;;;12.05;5.10;;;15.60;99.90;;;;;;4982377;28;20018;-73
2023/09/04 03:59:06;;;;;;;11.35;5.55;;;15.60;99.90;;;;;;4982026;28;20061;-77
2023/09/04 04:01:33;;;;;;;10.32;5.53;;;15.60;99.90;;;;;;5012053;28;20028;-74
2023/09/04 04:03:59;;;;;;;10.80;5.53;;;15.50;99.90;;;;;;4995651;28;20085;-73
2023/09/04 04:06:25;;;;;;;10.63;5.35;;;15.50;99.90;;;;;;5000308;28;20014;-74
2023/09/04 04:08:52;;;;;;;11.70;5.70;;;15.50;99.90;;;;;;5012914;28;20566;-73
2023/09/04 04:11:21;;;;;;;10.63;5.13;;;15.50;99.90;;;;;;4993892;28;20033;-73
2023/09/04 04:13:47;;;;;;;8.05;5.20;;;15.50;99.90;;;;;;5012386;28;20026;-75
2023/09/04 04:16:13;;;;;;;10.68;5.32;;;15.50;99.90;;;;;;4987486;28;20033;-73
2023/09/04 04:18:40;;;;;;;13.63;5.20;;;15.50;99.90;;;;;;4993284;28;20028;-74
2023/09/04 04:21:05;;;;;;;9.20;4.47;;;15.50;99.90;;;;;;5012836;28;20038;-73
2023/09/04 04:23:33;;;;;;;12.93;5.45;;;15.70;99.90;;;;;;5012545;28;20020;-73
2023/09/04 04:25:59;;;;;;;11.57;5.50;;;15.80;99.90;;;;;;5011856;28;20029;-73
2023/09/04 04:28:25;;;;;;;9.85;4.88;;;15.70;99.90;;;;;;4994670;28;20037;-75
2023/09/04 04:30:52;;;;;;;11.73;5.95;;;16.30;99.90;;;;;;4994513;28;20030;-75
2023/09/04 04:33:18;;;;;;;10.98;5.85;;;16.20;99.90;;;;;;4995065;28;20030;-74
2023/09/04 04:35:44;;;;;;;6.55;3.97;;;16.30;99.90;;;;;;4994388;28;20036;-74
2023/09/04 04:38:10;;;;;;;7.03;3.72;;;17.00;99.90;;;;;;4995045;28;20381;-75
2023/09/04 04:40:40;;;;;;;8.15;4.40;;;17.40;99.90;;;;;;4994497;28;20385;-73
2023/09/04 04:43:05;;;;;;;6.90;3.75;;;17.90;99.90;;;;;;4994769;28;20080;-73
2023/09/04 04:45:32;;;;;;;9.75;4.35;;;18.00;99.90;;;;;;4994988;28;20034;-76
2023/09/04 04:48:01;;;;;;;8.32;5.03;;;18.30;99.90;;;;;;4994516;28;20504;-74
2023/09/04 04:50:28;;;;;;;8.63;4.72;;;18.80;99.90;;;;;;4994695;28;20041;-73
2023/09/04 04:52:55;;;;;;;8.88;3.78;;;18.70;99.90;;;;;;4994474;28;20116;-76
2023/09/04 04:55:23;;;;;;;13.52;4.13;;;18.90;99.90;;;;;;5012600;28;20033;-73
2023/09/04 04:57:49;;;;;;;6.40;3.78;;;19.60;99.90;;;;;;5011948;28;20095;-75
2023/09/04 05:00:15;;;;;;;9.02;3.70;;;19.80;99.90;;;;;;4994405;28;20030;-76
2023/09/04 05:02:41;;;;;;;9.15;3.58;;;20.10;99.90;;;;;;5011999;28;20063;-75
2023/09/04 05:05:08;;;;;;;5.90;3.83;;;20.80;99.90;;;;;;4994796;28;20516;-74
2023/09/04 05:07:35;;;;;;;9.98;4.43;;;20.50;99.90;;;;;;4994573;28;20033;-77
2023/09/04 05:10:02;;;;;;;9.07;3.80;;;20.70;99.90;;;;;;4993212;28;20046;-74
2023/09/04 05:12:27;;;;;;;6.03;3.95;;;21.70;99.90;;;;;;5011779;28;20037;-75
2023/09/04 05:14:53;;;;;;;7.63;3.10;;;21.90;99.90;;;;;;4993906;28;20060;-74
2023/09/04 05:17:20;;;;;;;7.07;3.88;;;21.80;99.90;;;;;;4993821;28;20030;-76
2023/09/04 05:19:47;;;;;;;11.90;4.20;;;21.00;99.90;;;;;;4987439;28;20030;-73
2023/09/04 05:22:13;;;;;;;12.23;3.85;;;20.00;99.90;;;;;;4989823;28;20062;-74
2023/09/04 05:24:39;;;;;;;10.48;4.78;;;19.60;99.90;;;;;;4987132;28;20065;-74
2023/09/04 05:27:05;;;;;;;8.02;4.60;;;19.20;99.90;;;;;;4997431;28;20057;-76
2023/09/04 05:29:31;;;;;;;9.25;4.78;;;19.40;99.90;;;;;;5010915;28;20520;-75
2023/09/04 05:31:58;;;;;;;12.90;4.45;;;19.10;99.90;;;;;;5011889;28;20448;-76
2023/09/04 05:34:24;;;;;;;7.97;4.55;;;19.20;99.90;;;;;;5009762;28;20057;-76
2023/09/04 05:36:49;;;;;;;11.00;4.93;;;19.40;99.90;;;;;;5011624;28;20107;-74
2023/09/04 05:39:15;;;;;;;8.32;4.53;;;19.50;99.90;;;;;;5013316;28;20025;-74
2023/09/04 05:41:41;;;;;;;9.43;4.72;;;19.40;99.90;;;;;;5013302;28;20104;-73
2023/09/04 05:44:07;;;;;;;11.20;4.90;;;19.20;99.90;;;;;;5012536;28;20022;-76
2023/09/04 05:46:33;;;;;;;8.85;4.55;;;19.30;99.90;;;;;;5020234;28;20058;-76
2023/09/04 05:48:59;;;;;;;9.38;5.00;;;19.40;99.90;;;;;;5010354;28;20072;-73
2023/09/04 05:51:25;;;;;;;8.38;4.35;;;19.20;99.90;;;;;;5015755;28;20516;-75
2023/09/04 05:53:51;;;;;;;12.63;5.03;;;19.30;99.90;;;;;;5015685;28;20029;-76
2023/09/04 05:56:17;;;;;;;10.73;4.95;;;19.30;99.90;;;;;;5015139;28;20465;-74
2023/09/04 05:58:47;;;;;;;7.88;4.30;;;19.40;99.90;;;;;;5015028;28;20366;-76
2023/09/04 06:01:13;;;;;;;8.43;5.22;;;19.30;99.90;;;;;;5002924;28;20597;-74
2023/09/04 06:03:40;;;;;;;9.55;4.43;;;19.20;99.90;;;;;;5015195;28;20112;-74
2023/09/04 06:06:06;;;;;;;7.40;4.28;;;19.20;99.90;;;;;;5015371;28;20029;-76
2023/09/04 06:08:33;;;;;;;10.43;5.47;;;19.30;99.90;;;;;;5014695;28;20481;-73
2023/09/04 06:11:00;;;;;;;7.90;5.00;;;19.40;99.90;;;;;;5015538;28;20033;-73
2023/09/04 06:13:26;;;;;;;9.73;4.97;;;19.50;99.90;;;;;;5014942;28;20101;-74
2023/09/04 06:15:52;;;;;;;8.88;4.65;;;19.40;99.90;;;;;;5015001;28;20026;-73
2023/09/04 06:18:20;;;;;;;9.38;4.35;;;19.50;99.90;;;;;;5015004;28;20346;-73
2023/09/04 06:20:47;;;;;;;9.02;4.45;;;19.50;99.90;;;;;;5015114;28;20026;-73
2023/09/04 06:23:13;;;;;;;6.78;4.32;;;19.50;99.90;;;;;;5014650;28;20025;-73
2023/09/04 06:25:41;;;;;;;8.35;4.28;;;19.60;99.90;;;;;;5014935;28;20037;-74
2023/09/04 06:28:08;;;;;;;7.72;3.75;;;19.40;99.90;;;;;;5015190;28;20022;-74
2023/09/04 06:30:34;;;;;;;8.65;4.00;;;19.70;99.90;;;;;;5014824;28;20422;-73
2023/09/04 06:33:00;;;;;;;6.88;3.67;;;19.60;99.90;;;;;;5014952;28;20070;-73
2023/09/04 06:35:26;;;;;;;8.48;4.35;;;19.80;99.90;;;;;;5014611;28;20161;-73
2023/09/04 06:37:52;;;;;;;7.10;4.72;;;19.90;99.90;;;;;;5014866;28;20153;-76
2023/09/04 06:40:18;;;;;;;8.27;4.38;;;19.90;99.90;;;;;;5014527;28;20108;-73
2023/09/04 06:42:43;;;;;;;6.60;3.75;;;19.90;99.90;;;;;;5014742;28;20033;-73
2023/09/04 06:45:09;;;;;;;4.97;3.60;;;19.90;99.90;;;;;;5014347;28;20030;-72
2023/09/04 06:47:35;;;;;;;7.05;3.83;;;20.10;99.90;;;;;;5013170;28;20026;-73
2023/09/04 06:50:02;;;;;;;5.00;3.78;;;20.00;99.90;;;;;;5014522;28;20041;-73
2023/09/04 06:52:28;;;;;;;5.65;3.70;;;20.40;99.90;;;;;;5014409;28;20101;-73
2023/09/04 06:54:54;;;;;;;6.95;3.35;;;20.40;99.90;;;;;;5014530;28;20140;-73
2023/09/04 06:57:19;;;;;;;5.63;3.42;;;20.40;99.90;;;;;;5014209;28;20036;-73
2023/09/04 06:59:45;;;;;;;7.10;3.08;;;20.50;99.90;;;;;;5014453;28;20037;-73
2023/09/04 07:02:11;;;;;;;9.18;3.50;;;20.40;99.90;;;;;;5014401;28;20033;-75
2023/09/04 07:04:37;;;;;;;13.07;4.85;;;20.40;99.90;;;;;;5014294;28;20106;-73
2023/09/04 07:07:03;;;;;;;9.38;3.67;;;20.60;99.90;;;;;;5014055;28;20108;-74
2023/09/04 07:09:29;;;;;;;5.55;3.13;;;20.60;99.90;;;;;;5013932;28;20042;-73
2023/09/04 07:11:55;;;;;;;7.85;3.75;;;20.60;99.30;;;;;;5014030;28;20462;-74
2023/09/04 07:14:21;;;;;;;6.65;3.60;;;20.50;99.50;;;;;;5013701;28;20022;-74
2023/09/04 07:16:46;;;;;;;6.75;2.90;;;20.60;99.50;;;;;;5014087;28;20428;-73
2023/09/04 07:19:12;;;;;;;8.82;3.85;;;20.60;99.90;;;;;;5013255;28;20061;-73
2023/09/04 07:21:40;;;;;;;10.15;4.18;;;20.70;99.80;;;;;;5013946;28;20485;-73
2023/09/04 07:24:06;;;;;;;9.93;4.07;;;20.90;98.80;;;;;;5013651;28;20044;-73
2023/09/04 07:26:32;;;;;;;10.27;4.68;;;21.10;98.20;;;;;;5013806;28;20029;-74
2023/09/04 07:28:58;;;;;;;7.18;3.20;;;21.10;98.40;;;;;;5013389;28;20088;-74
2023/09/04 07:31:23;;;;;;;9.60;3.35;;;21.20;98.40;;;;;;5013855;28;20540;-74
2023/09/04 07:33:50;;;;;;;4.72;3.08;;;21.10;97.70;;;;;;5013593;28;20036;-77
2023/09/04 07:36:17;;;;;;;4.55;3.25;;;21.30;97.40;;;;;;5013646;28;20041;-74
2023/09/04 07:38:44;;;;;;;6.80;3.58;;;21.40;97.10;;;;;;5013396;28;20026;-72
2023/09/04 07:41:10;;;;;;;6.10;3.75;;;21.40;97.70;;;;;;5012862;28;20535;-73
2023/09/04 07:43:36;;;;;;;7.05;3.55;;;21.40;96.70;;;;;;5013462;28;20030;-74
2023/09/04 07:46:04;;;;;;;4.50;3.10;;;21.00;97.20;;;;;;5013461;28;20076;-75
2023/09/04 07:48:30;;;;;;;7.93;2.95;;;20.90;96.90;;;;;;5013044;28;20481;-75
2023/09/04 07:50:56;;;;;;;5.93;3.70;;;20.90;98.20;;;;;;5013490;28;20437;-75
2023/09/04 07:53:23;;;;;;;4.88;2.58;;;21.10;97.30;;;;;;5012872;28;20037;-72
2023/09/04 07:55:51;;;;;;;4.85;2.90;;;21.50;99.90;;;;;;5013418;28;20022;-72
2023/09/04 07:58:17;;;;;;;5.15;3.28;;;21.70;98.90;;;;;;5013388;28;20029;-72
2023/09/04 08:00:47;;;;;;;5.03;3.03;;;21.90;98.10;;;;;;5012844;28;20588;-72
2023/09/04 08:03:14;;;;;;;5.15;2.95;;;21.80;96.90;;;;;;4999869;28;20050;-74
2023/09/04 08:05:40;;;;;;;6.22;3.58;;;21.90;97.00;;;;;;5012861;28;20026;-73
2023/09/04 08:08:10;;;;;;;4.63;3.22;;;21.90;96.60;;;;;;5012704;28;20608;-73
2023/09/04 08:10:41;;;;;;;6.97;3.60;;;21.80;97.20;;;;;;5012671;28;20500;-74
2023/09/04 08:13:11;;;;;;;3.63;2.83;;;21.90;96.00;;;;;;5012759;28;20026;-73
2023/09/04 08:15:37;;;;;;;6.20;2.90;;;21.90;95.40;;;;;;5012539;28;20045;-72
2023/09/04 08:18:03;;;;;;;4.32;2.97;;;21.70;95.90;;;;;;5013072;28;20022;-73
2023/09/04 08:20:29;;;;;;;5.40;3.45;;;21.60;96.80;;;;;;5012978;28;20030;-73
2023/09/04 08:22:55;;;;;;;5.65;3.65;;;21.70;96.00;;;;;;5012964;28;20152;-75
2023/09/04 08:25:21;;;;;;;5.75;3.03;;;21.70;95.00;;;;;;5012047;28;20036;-72
2023/09/04 08:27:46;;;;;;;4.22;2.92;;;21.70;95.50;;;;;;5012998;28;20018;-73
2023/09/04 08:30:12;;;;;;;7.38;3.70;;;21.70;96.90;;;;;;5012106;28;20037;-72
2023/09/04 08:32:38;;;;;;;5.82;3.60;;;22.00;96.30;;;;;;5012807;28;20014;-72
2023/09/04 08:35:05;;;;;;;6.28;3.00;;;22.20;95.10;;;;;;5012493;28;20045;-72
2023/09/04 08:37:31;;;;;;;3.63;2.80;;;22.40;94.90;;;;;;5012662;28;20104;-73
2023/09/04 08:39:57;;;;;;;4.32;2.92;;;22.30;94.90;;;;;;5012302;28;20109;-75
2023/09/04 08:42:23;;;;;;;3.83;2.60;;;22.20;95.20;;;;;;5012530;28;20140;-73
2023/09/04 08:44:54;;;;;;;4.50;2.88;;;22.50;93.90;;;;;;5012211;28;20033;-74
2023/09/04 08:47:21;;;;;;;5.43;2.88;;;22.50;94.00;;;;;;4994470;28;20022;-73
2023/09/04 08:49:47;;;;;;;5.50;3.22;;;22.50;98.10;;;;;;5012313;28;20037;-72
2023/09/04 08:52:13;;;;;;;5.07;2.95;;;22.50;98.10;;;;;;5012098;28;20121;-73
2023/09/04 08:54:40;;;;;;;11.68;2.60;;;22.40;97.80;;;;;;5012314;28;20061;-74
2023/09/04 08:57:07;;;;;;;4.30;2.67;;;22.30;97.50;;;;;;5012267;28;20080;-74
2023/09/04 08:59:33;;;;;;;5.72;2.50;;;22.40;97.00;;;;;;5012188;28;20045;-74
2023/09/04 09:02:03;;;;;;;10.25;3.00;;;22.20;95.10;;;;;;5012259;28;20026;-73
2023/09/04 09:04:31;;;;;;;4.03;2.85;;;22.20;95.20;;;;;;5012267;28;20061;-72
2023/09/04 09:06:58;;;;;;;4.47;2.65;;;22.10;94.90;;;;;;5012223;28;20018;-74
2023/09/04 09:09:24;;;;;;;7.88;3.75;;;22.10;94.60;;;;;;5011497;28;20046;-73
2023/09/04 09:11:53;;;;;;;4.25;3.28;;;22.10;95.00;;;;;;5012129;28;20035;-73
2023/09/04 09:14:28;;;;;;;3.95;2.75;;;22.20;95.20;;;;;;5011856;28;20461;-73
2023/09/04 09:17:10;;;;;;;8.57;3.08;;;22.20;94.90;;;;;;5011987;28;20022;-73
2023/09/04 09:19:38;;;;;;;5.32;3.17;;;22.10;94.50;;;;;;5001382;28;20034;-72
2023/09/04 09:22:10;;;;;;;8.80;2.65;;;22.20;94.90;;;;;;5011481;28;20105;-75
2023/09/04 09:24:48;;;;;;;7.32;2.85;;;22.50;94.90;;;;;;5012148;28;20033;-73
2023/09/04 09:27:13;;;;;;;7.30;2.92;;;22.40;94.70;;;;;;5011631;28;20109;-74
2023/09/04 09:29:39;;;;;;;5.40;2.60;;;22.60;93.00;;;;;;5012043;28;20096;-72
2023/09/04 09:32:05;;;;;;;4.72;3.10;;;22.50;92.90;;;;;;5011915;28;20026;-73
2023/09/04 09:34:34;;;;;;;3.67;2.90;;;22.40;92.80;;;;;;5011770;28;20540;-73
2023/09/04 09:37:01;;;;;;;5.13;3.28;;;22.40;92.70;;;;;;5011813;28;20490;-75
2023/09/04 09:39:29;;;;;;;8.38;3.08;;;22.50;92.30;;;;;;5011651;28;20129;-75
2023/09/04 09:41:58;;;;;;;4.07;2.85;;;22.60;93.30;;;;;;5011785;28;20018;-73
2023/09/04 09:44:31;;;;;;;6.75;2.95;;;22.70;93.70;;;;;;5011694;28;20095;-73
2023/09/04 09:46:57;;;;;;;4.28;2.92;;;22.70;95.80;;;;;;5009400;28;20062;-72
2023/09/04 09:49:23;;;;;;;8.23;2.83;;;22.80;95.60;;;;;;5016209;28;20074;-73
2023/09/04 09:51:54;;;;;;;4.82;2.58;;;22.70;95.10;;;;;;5011600;28;20082;-75
2023/09/04 09:54:37;;;;;;;4.88;2.28;;;22.70;95.10;;;;;;5011807;28;20038;-73
2023/09/04 09:57:10;;;;;;;5.80;2.60;;;22.90;94.80;;;;;;5011763;28;20076;-73
2023/09/04 09:59:43;;;;;;;5.72;2.78;;;23.40;99.90;;;;;;5011457;28;20029;-72
2023/09/04 10:02:09;;;;;;;4.80;2.70;;;23.30;99.90;;;;;;5011798;28;20061;-73
2023/09/04 10:04:36;;;;;;;8.38;2.85;;;23.50;99.90;;;;;;5011905;28;20446;-73
2023/09/04 10:07:03;;;;;;;8.68;3.45;;;23.40;99.90;;;;;;5011818;28;20040;-73
2023/09/04 10:09:40;;;;;;;5.68;2.70;;;23.40;99.90;;;;;;5010772;28;20180;-75
2023/09/04 10:12:31;;;;;;;6.13;3.05;;;23.40;99.90;;;;;;5011422;28;20109;-72
2023/09/04 10:14:59;;;;;;;6.20;2.72;;;23.40;99.90;;;;;;5001912;28;20056;-73
2023/09/04 10:17:40;;;;;;;4.35;2.65;;;23.30;99.90;;;;;;5011791;28;20474;-73
2023/09/04 10:20:08;;;;;;;7.07;3.58;;;23.10;99.90;;;;;;5011933;28;20038;-73
2023/09/04 10:22:42;;;;;;;9.65;3.00;;;22.80;99.90;;;;;;5011548;28;20072;-73
2023/09/04 10:25:27;;;;;;;8.35;2.60;;;22.70;99.90;;;;;;5014784;28;20038;-73
2023/09/04 10:28:09;;;;;;;3.75;2.50;;;22.70;99.90;;;;;;5015100;28;20026;-72
2023/09/04 10:30:40;;;;;;;17.35;2.75;;;22.70;99.90;;;;;;5014755;28;20470;-73
2023/09/04 10:33:06;;;;;;;4.60;2.88;;;23.00;99.90;;;;;;5014704;28;20505;-74
2023/09/04 10:35:33;;;;;;;3.70;2.70;;;23.10;99.90;;;;;;5014572;28;20032;-73
2023/09/04 10:37:59;;;;;;;7.20;2.75;;;23.20;99.90;;;;;;5014514;28;20469;-76
2023/09/04 10:40:28;;;;;;;3.90;2.42;;;23.20;99.90;;;;;;5014805;28;20037;-74
2023/09/04 10:42:56;;;;;;;4.18;2.72;;;23.30;99.90;;;;;;5014582;28;20037;-74
2023/09/04 10:45:23;;;;;;;3.90;2.92;;;23.40;99.90;;;;;;5014510;28;20028;-73
2023/09/04 10:47:51;;;;;;;6.35;2.70;;;23.50;99.90;;;;;;5014676;28;20033;-73
2023/09/04 10:50:37;;;;;;;4.40;2.70;;;23.70;99.90;;;;;;5014421;28;20038;-72
2023/09/04 10:53:05;;;;;;;4.20;2.50;;;23.70;96.10;;;;;;5014097;28;20032;-73
2023/09/04 10:55:37;;;;;;;6.72;3.28;;;23.60;94.90;;;;;;5014142;28;20030;-74
2023/09/04 10:58:06;;;;;;;6.57;2.77;;;23.50;95.00;;;;;;5014225;28;20022;-74
2023/09/04 11:00:36;;;;;;;3.05;2.50;;;23.40;94.30;;;;;;5014433;28;20030;-73
2023/09/04 11:03:15;;;;;;;4.95;3.00;;;23.40;94.50;;;;;;5014148;28;20022;-74
2023/09/04 11:06:02;;;;;;;5.95;2.67;;;23.50;94.20;;;;;;5014142;28;20022;-73
2023/09/04 11:08:29;;;;;;;7.15;3.03;;;23.50;93.80;;;;;;5004054;28;20556;-74
2023/09/04 11:11:02;;;;;;;5.03;2.95;;;23.60;94.30;;;;;;5014224;28;20037;-73
2023/09/04 11:13:28;;;;;;;6.28;3.03;;;23.60;93.20;;;;;;5014182;28;20030;-73
2023/09/04 11:15:57;;;;;;;5.60;2.70;;;23.50;92.30;;;;;;5013669;28;20037;-73
2023/09/04 11:18:30;;;;;;;5.85;3.20;;;23.70;92.30;;;;;;5014251;28;20061;-74
2023/09/04 11:20:59;;;;;;;6.72;2.40;;;;;;;;;;5013886;28;20069;-73
2023/09/04 11:23:27;;;;;;;4.15;2.40;;;;;;;;;;5013687;28;20030;-73
2023/09/04 11:25:54;;;;;;;4.97;3.05;;;23.70;99.90;;;;;;5013961;28;20052;-74
2023/09/04 11:28:25;;;;;;;5.43;3.28;;;23.10;95.20;;;;;;5013725;28;20400;-74
2023/09/04 11:30:58;;;;;;;5.53;2.88;;;23.40;93.70;;;;;;5013981;28;20034;-72
2023/09/04 11:33:29;;;;;;;6.47;2.70;;;23.30;94.30;;;;;;5013188;28;20030;-73
2023/09/04 11:36:06;;;;;;;5.00;2.97;;;23.50;94.90;;;;;;5013113;28;20029;-73
2023/09/04 11:38:33;;;;;;;7.28;2.67;;;23.70;94.30;;;;;;5013588;28;20034;-72
2023/09/04 11:41:01;;;;;;;6.82;2.70;;;23.70;93.80;;;;;;5013658;28;20026;-75
2023/09/04 11:43:28;;;;;;;6.65;3.67;;;23.80;87.70;;;;;;5013271;28;20144;-74
2023/09/04 11:45:59;;;;;;;5.55;2.92;;;23.60;92.30;;;;;;5013336;28;20466;-75
2023/09/04 11:48:27;;;;;;;3.90;2.37;;;24.20;99.90;;;;;;5013405;28;20389;-73
2023/09/04 11:50:53;;;;;;;3.63;2.13;;;24.00;86.90;;;;;;5013536;28;20022;-73
2023/09/04 11:53:21;;;;;;;4.05;2.10;;;24.00;86.20;;;;;;5013043;28;20061;-73
2023/09/04 11:55:47;;;;;;;6.45;2.70;;;24.10;86.90;;;;;;5013345;28;20022;-72
2023/09/04 11:58:13;;;;;;;4.80;2.72;;;24.20;88.10;;;;;;5012739;28;20026;-73
2023/09/04 12:00:42;;;;;;;3.53;2.30;;;24.10;85.00;;;;;;5013382;28;20025;-73
2023/09/04 12:03:08;;;;;;;4.43;2.67;;;24.20;85.10;;;;;;5013230;28;20095;-74
2023/09/04 12:05:37;;;;;;;4.78;2.40;;;24.40;84.10;;;;;;5013295;28;20393;-73
2023/09/04 12:08:04;;;;;;;6.70;2.50;;;24.60;84.60;;;;;;5012165;28;20104;-73
2023/09/04 12:10:33;;;;;;;6.93;2.67;;;24.60;84.00;;;;;;5012864;28;20042;-73
2023/09/04 12:12:59;;;;;;;4.60;2.33;;;24.50;84.20;;;;;;5000796;28;20113;-75
2023/09/04 12:15:30;;;;;;;4.00;2.65;;;24.20;83.80;;;;;;5012758;28;20438;-72
2023/09/04 12:17:58;;;;;;;3.90;2.40;;;24.20;84.30;;;;;;5013136;28;20083;-75
2023/09/04 12:20:24;;;;;;;4.28;2.83;;;24.30;85.10;;;;;;5012600;28;20616;-73
2023/09/04 12:22:56;;;;;;;4.93;2.83;;;24.60;86.20;;;;;;5012854;28;20101;-74
2023/09/04 12:25:25;;;;;;;6.25;2.70;;;24.90;84.70;;;;;;5012339;28;20032;-73
2023/09/04 12:27:51;;;;;;;3.80;2.40;;;24.70;83.40;;;;;;5012428;28;20029;-75
2023/09/04 12:30:17;;;;;;;6.25;2.20;;;24.70;84.10;;;;;;5012915;28;20123;-75
2023/09/04 12:32:43;;;;;;;6.38;2.58;;;24.50;83.10;;;;;;5012608;28;20053;-73
2023/09/04 12:35:09;;;;;;;5.65;2.20;;;24.50;81.60;;;;;;5012663;28;20092;-72
2023/09/04 12:37:36;;;;;;;6.45;2.92;;;24.40;82.20;;;;;;5012496;28;20021;-74
2023/09/04 12:40:09;;;;;;;3.65;2.38;;;24.30;83.10;;;;;;5012196;28;20037;-74
2023/09/04 12:42:36;;;;;;;3.63;2.30;;;24.10;83.40;;;;;;5012428;28;20022;-73
2023/09/04 12:45:02;;;;;;;7.25;2.35;;;24.10;83.60;;;;;;5011486;28;20544;-73
2023/09/04 12:47:27;;;;;;;6.20;2.67;;;24.00;82.30;;;;;;5012267;28;20030;-74